Terminal Aerodrome Forecast
Issued by NWS Northern Indiana

Home | Current Version | Previous Version | Graphics & Text | Print | Product List | Glossary On
Versions: 1 2 3 4 5 6 7 8 9 10 11 12 13
000
FTUS43 KIWX 281100
TAFFWA
TAF
KFWA 281140Z 2812/2912 00000KT P6SM FEW250
     FM281500 14007KT P6SM FEW150 SCT250
     FM281900 15011KT P6SM BKN150
     FM290400 16013G20KT P6SM FEW050 BKN150 WS020/20045KT PROB30
      2906/2909 -FZRA BKN050
     FM290900 17012G18KT 6SM -RA BR OVC025 WS020/20050KT=

USA.gov is the U.S. government's official web portal to all federal, state and local government web resources and services.